Ingeniero Alberto Acuna Ongay International Airport
MMCP : now visible

Airfield :











YOU CAN JOIN US ON...

 
LOGIN :

Register | Disclaimer

   EN    FR    IT 

 









Legend :    VFR   Marginal VFR   IFR   Intensive IFR   Very Intensive IFR
Visi :
Ceiling :
>= 8 km
>= 3000ft
5 to 8 km
1000 to 3000 ft
1500m to 5 km
500 to 1000 ft
800 to 1500m
200 to 500 ft
< 800m
< 200 ft
Symbols :   Thunderstorms  Fog  Heavy snow  Heavy precipitations  Wind > 20 kt






- Airport Elevation : 34 ft
- IATA code : CPE


MMCP - Ingeniero Alberto Acuna Ongay International

CURRENT METAR :
  • 051544Z 14007KT 7SM SCT030 SCT300 30/26 A2997 RMK 8/101

EXPIRED METARs :
  • 051448Z 11005KT 7SM SCT020 SCT300 28/26 A2997 RMK SLP138 52011 951 8/101
  • 051345Z 11005KT 7SM FEW015 SCT300 28/26 A2996 RMK 8/101 HZY

TAF TAF MMCP
Valid from the 05 at 06:00 until the 06 at 06:00 UTC


050637Z 0506/0606 00000KT P6SM SCT100
TEMPO 0510/0514 BKN015
FM051800 34015KT P6SM BKN020 BKN100
BECMG 0519/0520 5SM RA
TEMPO 0521/0601 5SM TSRA BKN015CB OVC090
MMFR FIR / North America



MET'MAP, your aeronautical weather chart ! - Copyright ORBIFLY December 2007 - Disclaimer

ORBIFLY MET'MAP TEAM :

Programming & Development : Alexandra Zaïnal
Concept & original design : Baudouin d'Aumeries
Assistance for programming : Marc-Olivier Méhu
Technical & hardware support : Manuel Goepfert

Contact : metmap@orbifly.com




SOURCES & CREDITS :

   NOAA       Earth
Advisory